createdAt,value
2023-05-02T00:00:47.812Z,54.75
2023-05-02T00:03:14.588Z,59.78
2023-05-02T00:05:41.181Z,55.90
2023-05-02T00:08:07.879Z,60.50
2023-05-02T00:10:34.724Z,55.72
2023-05-02T00:13:01.280Z,56.30
2023-05-02T00:15:27.919Z,66.82
2023-05-02T00:17:54.631Z,64.47
2023-05-02T00:20:21.214Z,71.03
2023-05-02T00:22:47.821Z,62.38
2023-05-02T00:25:14.409Z,61.03
2023-05-02T00:27:40.914Z,66.03
2023-05-02T00:30:08.205Z,73.53
2023-05-02T00:32:34.896Z,71.57
2023-05-02T00:35:01.438Z,76.60
2023-05-02T00:37:27.983Z,79.30
2023-05-02T00:39:54.881Z,81.22
2023-05-02T00:42:21.404Z,72.78
2023-05-02T00:44:47.970Z,75.30
2023-05-02T00:47:15.386Z,77.60
2023-05-02T00:49:42.004Z,85.65
2023-05-02T00:52:08.834Z,77.95
2023-05-02T00:54:37.828Z,78.72
2023-05-02T00:57:04.329Z,77.32
2023-05-02T00:59:30.809Z,82.25
2023-05-02T01:02:22.712Z,72.50
2023-05-02T01:05:15.327Z,77.75
2023-05-02T01:08:05.387Z,74.05
2023-05-02T01:10:55.914Z,78.75
2023-05-02T01:13:27.546Z,78.43
2023-05-02T01:15:57.861Z,68.13
2023-05-02T01:18:27.224Z,73.32
2023-05-02T01:21:00.813Z,67.13
2023-05-02T01:23:38.935Z,76.40
2023-05-02T01:26:40.499Z,73.60
2023-05-02T01:29:08.613Z,68.03
2023-05-02T01:31:41.836Z,78.63
2023-05-02T01:34:10.964Z,69.07
2023-05-02T01:36:42.598Z,77.30
2023-05-02T01:39:11.300Z,74.38
2023-05-02T01:41:38.959Z,73.70
2023-05-02T01:44:07.515Z,69.93
2023-05-02T01:46:38.040Z,72.85
2023-05-02T01:49:07.626Z,75.47
2023-05-02T01:51:37.361Z,73.80
2023-05-02T01:54:06.854Z,71.78
2023-05-02T01:56:37.110Z,73.45
2023-05-02T01:59:07.842Z,68.30
2023-05-02T02:01:36.533Z,70.03
2023-05-02T02:04:04.636Z,68.38
2023-05-02T02:06:31.340Z,68.20
2023-05-02T02:08:57.979Z,70.20
2023-05-02T02:11:42.046Z,67.00
2023-05-02T02:14:19.084Z,67.72
2023-05-02T02:16:46.204Z,67.88
2023-05-02T02:19:14.905Z,72.88
2023-05-02T02:21:45.596Z,67.18
2023-05-02T02:24:13.373Z,69.35
2023-05-02T02:26:39.976Z,70.60
2023-05-02T02:29:06.569Z,75.47
2023-05-02T02:31:34.594Z,63.95
2023-05-02T02:34:02.199Z,71.45
2023-05-02T02:36:54.895Z,69.00
2023-05-02T02:39:54.820Z,74.88
2023-05-02T02:42:42.309Z,70.10
2023-05-02T02:45:38.476Z,66.45
2023-05-02T02:48:20.046Z,73.80
2023-05-02T02:51:13.904Z,63.55
2023-05-02T02:53:49.915Z,63.60
2023-05-02T02:56:29.806Z,61.05
2023-05-02T02:59:15.393Z,71.95
2023-05-02T03:01:46.679Z,68.93
2023-05-02T03:04:15.984Z,66.53
2023-05-02T03:06:42.780Z,64.40
2023-05-02T03:09:15.799Z,70.85
2023-05-02T03:11:42.374Z,65.82
2023-05-02T03:14:08.896Z,64.03
2023-05-02T03:16:39.591Z,72.82
2023-05-02T03:19:07.449Z,61.33
2023-05-02T03:21:34.621Z,64.60
2023-05-02T03:24:02.342Z,59.05
2023-05-02T03:26:29.135Z,67.95
2023-05-02T03:28:56.854Z,68.95
2023-05-02T03:31:26.056Z,60.72
2023-05-02T03:33:52.980Z,66.65
2023-05-02T03:36:19.501Z,63.28
2023-05-02T03:38:46.021Z,62.25
2023-05-02T03:41:12.627Z,61.47
2023-05-02T03:43:39.128Z,61.13
2023-05-02T03:46:07.576Z,69.28
2023-05-02T03:48:34.571Z,69.80
2023-05-02T03:51:02.749Z,62.05
2023-05-02T03:53:30.412Z,63.72
2023-05-02T03:55:57.327Z,59.13
2023-05-02T03:58:23.902Z,57.70
2023-05-02T04:00:50.481Z,61.70
2023-05-02T04:03:17.055Z,64.85
2023-05-02T04:05:43.675Z,52.60
2023-05-02T04:08:10.266Z,51.72
2023-05-02T04:10:36.781Z,43.80
2023-05-02T04:13:03.922Z,42.47
2023-05-02T04:15:31.675Z,48.55
2023-05-02T04:17:58.571Z,42.22
2023-05-02T04:20:25.441Z,40.97
2023-05-02T04:22:52.653Z,32.72
2023-05-02T04:25:19.167Z,31.17
2023-05-02T04:27:45.713Z,27.25
2023-05-02T04:30:12.411Z,29.83
2023-05-02T04:32:39.080Z,32.08
2023-05-02T04:35:05.998Z,26.67
2023-05-02T04:37:32.712Z,24.95
2023-05-02T04:39:59.340Z,20.98
2023-05-02T04:42:26.077Z,25.13
2023-05-02T04:44:52.624Z,23.25
2023-05-02T04:47:19.110Z,21.55
2023-05-02T04:49:45.688Z,22.17
2023-05-02T04:52:12.258Z,22.70
2023-05-02T04:54:38.824Z,22.38
2023-05-02T04:57:05.351Z,22.10
2023-05-02T04:59:31.934Z,20.23
2023-05-02T05:01:58.831Z,22.42
2023-05-02T05:04:25.360Z,28.05
2023-05-02T05:06:52.080Z,22.83
2023-05-02T05:09:18.691Z,23.35
2023-05-02T05:11:45.254Z,21.58
2023-05-02T05:14:12.050Z,24.48
2023-05-02T05:16:38.707Z,19.77
2023-05-02T05:19:05.265Z,19.60
2023-05-02T05:21:31.823Z,20.25
2023-05-02T05:23:58.402Z,22.15
2023-05-02T05:26:24.940Z,23.35
2023-05-02T05:28:51.478Z,18.83
2023-05-02T05:31:18.265Z,21.23
2023-05-02T05:33:44.968Z,20.85
2023-05-02T05:36:13.595Z,22.80
2023-05-02T05:38:40.361Z,18.40
2023-05-02T05:41:07.206Z,18.98
2023-05-02T05:43:36.106Z,19.55
2023-05-02T05:46:04.437Z,23.00
2023-05-02T05:48:31.007Z,20.63
2023-05-02T05:50:57.666Z,18.88
2023-05-02T05:53:24.210Z,27.05
2023-05-02T05:55:50.718Z,20.45
2023-05-02T05:58:17.237Z,21.60
2023-05-02T06:00:43.716Z,21.52
2023-05-02T06:03:10.444Z,21.15
2023-05-02T06:05:37.198Z,20.40
2023-05-02T06:08:03.974Z,19.48
2023-05-02T06:10:31.831Z,19.02
2023-05-02T06:12:58.478Z,20.02
2023-05-02T06:15:25.059Z,19.25
2023-05-02T06:17:52.108Z,22.48
2023-05-02T06:20:18.917Z,23.25
2023-05-02T06:22:45.732Z,23.58
2023-05-02T06:25:12.265Z,20.23
2023-05-02T06:27:38.755Z,19.35
2023-05-02T06:30:06.103Z,22.75
2023-05-02T06:32:32.727Z,21.88
2023-05-02T06:34:59.418Z,21.13
2023-05-02T06:37:25.934Z,24.83
2023-05-02T06:39:52.441Z,22.45
2023-05-02T06:42:18.924Z,23.63
2023-05-02T06:44:45.455Z,22.27
2023-05-02T06:47:12.311Z,24.92
2023-05-02T06:49:38.865Z,20.42
2023-05-02T06:52:05.389Z,15.15
2023-05-02T06:54:31.876Z,17.00
2023-05-02T06:56:59.602Z,19.88
2023-05-02T06:59:26.086Z,15.20
2023-05-02T07:01:52.619Z,16.80
2023-05-02T07:04:19.144Z,18.08
2023-05-02T07:06:46.811Z,16.00
2023-05-02T07:09:13.393Z,12.82
2023-05-02T07:11:40.066Z,16.27
2023-05-02T07:14:06.605Z,12.63
2023-05-02T07:16:33.180Z,11.57
2023-05-02T07:18:59.669Z,11.13
2023-05-02T07:21:26.197Z,8.05
2023-05-02T07:23:52.709Z,11.20
2023-05-02T07:26:19.333Z,6.63
2023-05-02T07:28:45.809Z,10.88
2023-05-02T07:31:12.280Z,7.68
2023-05-02T07:33:38.765Z,8.23
2023-05-02T07:36:05.535Z,6.55
2023-05-02T07:38:32.042Z,7.07
2023-05-02T07:41:00.349Z,4.35
2023-05-02T07:43:27.216Z,6.47
2023-05-02T07:45:53.724Z,5.43
2023-05-02T07:48:20.277Z,5.28
2023-05-02T07:50:46.876Z,5.55
2023-05-02T07:53:13.400Z,8.15
2023-05-02T07:55:39.930Z,5.40
2023-05-02T07:58:06.497Z,6.00
2023-05-02T08:00:33.455Z,6.53
2023-05-02T08:03:00.136Z,6.13
2023-05-02T08:05:27.022Z,7.25
2023-05-02T08:07:53.562Z,7.22
2023-05-02T08:10:20.102Z,6.45
2023-05-02T08:12:46.596Z,5.60
2023-05-02T08:15:13.155Z,6.78
2023-05-02T08:17:39.754Z,7.00
2023-05-02T08:20:07.011Z,10.07
2023-05-02T08:22:33.538Z,5.85
2023-05-02T08:25:00.098Z,6.03
2023-05-02T08:27:26.875Z,6.07
2023-05-02T08:29:53.414Z,5.60
2023-05-02T08:32:19.953Z,6.40
2023-05-02T08:34:46.432Z,5.13
2023-05-02T08:37:13.499Z,6.18
2023-05-02T08:39:40.047Z,6.63
2023-05-02T08:42:09.565Z,4.20
2023-05-02T08:44:37.272Z,5.68
2023-05-02T08:47:05.177Z,5.72
2023-05-02T08:49:32.279Z,4.30
2023-05-02T08:52:00.409Z,6.40
2023-05-02T08:54:27.237Z,6.95
2023-05-02T08:56:54.479Z,5.13
2023-05-02T08:59:21.115Z,5.05
2023-05-02T09:01:52.711Z,6.25
2023-05-02T09:04:26.676Z,6.18
2023-05-02T09:06:53.269Z,5.47
2023-05-02T09:09:19.865Z,5.03
2023-05-02T09:11:52.521Z,4.80
2023-05-02T09:14:19.100Z,5.82
2023-05-02T09:16:47.953Z,5.32
2023-05-02T09:19:25.943Z,7.15
2023-05-02T09:21:58.736Z,10.27
2023-05-02T09:24:25.506Z,6.93
2023-05-02T09:27:07.215Z,6.45
2023-05-02T09:29:34.443Z,7.10
2023-05-02T09:32:04.405Z,7.05
2023-05-02T09:34:31.008Z,4.57
2023-05-02T09:36:57.655Z,5.90
2023-05-02T09:39:28.800Z,4.68
2023-05-02T09:41:56.165Z,6.75
2023-05-02T09:44:27.380Z,8.82
2023-05-02T09:46:55.486Z,7.43
2023-05-02T09:49:42.112Z,7.20
2023-05-02T09:52:13.394Z,7.68
2023-05-02T09:54:40.021Z,6.55
2023-05-02T09:57:06.557Z,5.75
2023-05-02T09:59:33.479Z,5.50
2023-05-02T10:02:05.309Z,5.03
2023-05-02T10:04:33.278Z,6.60
2023-05-02T10:07:01.511Z,6.15
2023-05-02T10:09:29.947Z,5.35
2023-05-02T10:11:56.766Z,6.22
2023-05-02T10:14:27.036Z,5.50
2023-05-02T10:17:20.316Z,5.90
2023-05-02T10:20:07.026Z,8.90
2023-05-02T10:22:34.802Z,5.10
2023-05-02T10:25:03.337Z,7.20
2023-05-02T10:27:30.703Z,7.32
2023-05-02T10:29:59.391Z,6.13
2023-05-02T10:32:28.438Z,7.35
2023-05-02T10:34:57.051Z,6.47
2023-05-02T10:37:25.711Z,6.30
2023-05-02T10:39:52.432Z,4.97
2023-05-02T10:42:21.021Z,5.75
2023-05-02T10:44:47.652Z,12.60
2023-05-02T10:47:21.898Z,7.57
2023-05-02T10:50:05.044Z,11.32
2023-05-02T10:52:34.290Z,7.00
2023-05-02T10:55:16.331Z,7.60
2023-05-02T10:57:57.850Z,7.22
2023-05-02T11:00:25.761Z,6.05
2023-05-02T11:02:52.607Z,5.38
2023-05-02T11:05:19.302Z,6.32
2023-05-02T11:07:45.816Z,8.00
2023-05-02T11:10:18.213Z,7.53
2023-05-02T11:12:45.985Z,6.60
2023-05-02T11:15:15.211Z,5.78
2023-05-02T11:18:00.502Z,6.45
2023-05-02T11:20:27.641Z,5.75
2023-05-02T11:22:56.089Z,8.65
2023-05-02T11:25:36.988Z,7.00
2023-05-02T11:28:06.493Z,8.30
2023-05-02T11:30:41.267Z,6.25
2023-05-02T11:33:07.827Z,7.35
2023-05-02T11:35:35.808Z,8.32
2023-05-02T11:38:04.255Z,7.10
2023-05-02T11:40:31.746Z,8.82
2023-05-02T11:43:00.025Z,6.70
2023-05-02T11:45:36.633Z,8.32
2023-05-02T11:48:05.599Z,8.50
2023-05-02T11:50:48.790Z,7.45
2023-05-02T11:53:19.282Z,5.07
2023-05-02T11:55:47.814Z,6.43
2023-05-02T11:58:15.880Z,6.97
2023-05-02T12:00:43.644Z,7.13
2023-05-02T12:03:23.153Z,6.10
2023-05-02T12:05:50.540Z,9.60
2023-05-02T12:08:21.492Z,8.70
2023-05-02T12:10:48.719Z,8.05
2023-05-02T12:13:15.232Z,7.68
2023-05-02T12:15:42.041Z,9.10
2023-05-02T12:18:08.969Z,9.13
2023-05-02T12:20:37.106Z,6.47
2023-05-02T12:23:05.119Z,8.43
2023-05-02T12:25:31.722Z,5.25
2023-05-02T12:28:02.319Z,8.35
2023-05-02T12:30:30.006Z,8.73
2023-05-02T12:32:58.719Z,7.05
2023-05-02T12:35:25.398Z,9.73
2023-05-02T12:37:52.746Z,6.72
2023-05-02T12:40:19.288Z,7.00
2023-05-02T12:42:59.583Z,9.88
2023-05-02T12:45:26.150Z,7.20
2023-05-02T12:47:52.815Z,8.07
2023-05-02T12:50:19.358Z,9.23
2023-05-02T12:52:51.135Z,6.13
2023-05-02T12:55:22.688Z,7.15
2023-05-02T12:57:49.188Z,6.63
2023-05-02T13:00:18.822Z,5.97
2023-05-02T13:02:45.324Z,7.20
2023-05-02T13:05:16.313Z,7.50
2023-05-02T13:07:42.954Z,8.93
2023-05-02T13:10:09.744Z,4.93
2023-05-02T13:12:36.215Z,6.45
2023-05-02T13:15:06.848Z,6.78
2023-05-02T13:17:36.757Z,6.13
2023-05-02T13:20:03.962Z,9.55
2023-05-02T13:22:30.907Z,7.35
2023-05-02T13:24:57.451Z,6.03
2023-05-02T13:27:24.217Z,6.50
2023-05-02T13:29:51.019Z,5.90
2023-05-02T13:32:18.112Z,9.80
2023-05-02T13:34:44.983Z,9.48
2023-05-02T13:37:11.703Z,5.63
2023-05-02T13:39:38.253Z,8.05
2023-05-02T13:42:06.169Z,6.50
2023-05-02T13:44:32.949Z,10.10
2023-05-02T13:46:59.438Z,7.82
2023-05-02T13:49:26.031Z,5.95
2023-05-02T13:51:52.533Z,7.40
2023-05-02T13:54:19.081Z,9.07
2023-05-02T13:56:45.576Z,8.07
2023-05-02T13:59:12.091Z,7.90
2023-05-02T14:01:38.692Z,6.88
2023-05-02T14:04:05.336Z,9.32
2023-05-02T14:06:32.235Z,6.03
2023-05-02T14:08:58.807Z,6.88
2023-05-02T14:11:25.348Z,7.88
2023-05-02T14:13:52.420Z,8.15
2023-05-02T14:16:19.242Z,7.57
2023-05-02T14:18:45.781Z,6.15
2023-05-02T14:21:12.294Z,9.25
2023-05-02T14:23:38.778Z,6.90
2023-05-02T14:26:05.614Z,7.32
2023-05-02T14:28:32.092Z,6.30
2023-05-02T14:30:58.647Z,6.15
2023-05-02T14:33:25.184Z,7.10
2023-05-02T14:35:51.657Z,8.93
2023-05-02T14:38:18.160Z,7.07
2023-05-02T14:40:44.659Z,8.35
2023-05-02T14:43:13.240Z,10.02
2023-05-02T14:45:39.769Z,13.38
2023-05-02T14:48:06.488Z,10.55
2023-05-02T14:50:33.003Z,9.30
2023-05-02T14:52:59.532Z,5.63
2023-05-02T14:55:26.057Z,6.07
2023-05-02T14:57:52.575Z,8.80
2023-05-02T15:00:19.143Z,7.00
2023-05-02T15:02:45.752Z,7.65
2023-05-02T15:05:12.692Z,7.63
2023-05-02T15:07:39.533Z,7.28
2023-05-02T15:10:06.484Z,9.32
2023-05-02T15:12:32.951Z,8.50
2023-05-02T15:14:59.435Z,5.32
2023-05-02T15:17:25.922Z,6.07
2023-05-02T15:19:52.467Z,8.23
2023-05-02T15:22:18.939Z,8.30
2023-05-02T15:24:45.469Z,8.73
2023-05-02T15:27:11.990Z,6.22
2023-05-02T15:29:38.496Z,6.50
2023-05-02T15:32:05.151Z,9.32
2023-05-02T15:34:31.729Z,6.32
2023-05-02T15:36:59.925Z,9.20
2023-05-02T15:39:26.536Z,8.93
2023-05-02T15:41:53.165Z,5.15
2023-05-02T15:44:19.673Z,7.93
2023-05-02T15:46:46.289Z,8.57
2023-05-02T15:49:13.272Z,6.70
2023-05-02T15:51:39.835Z,8.60
2023-05-02T15:54:06.853Z,6.28
2023-05-02T15:56:33.425Z,6.47
2023-05-02T15:58:59.977Z,9.88
2023-05-02T16:01:26.494Z,6.22
2023-05-02T16:03:53.149Z,7.40
2023-05-02T16:06:19.870Z,8.93
2023-05-02T16:08:46.455Z,9.77
2023-05-02T16:11:13.058Z,7.38
2023-05-02T16:13:39.607Z,7.45
2023-05-02T16:16:06.327Z,7.22
2023-05-02T16:18:33.715Z,6.20
2023-05-02T16:21:00.241Z,8.15
2023-05-02T16:23:26.851Z,6.72
2023-05-02T16:26:00.510Z,7.07
2023-05-02T16:28:27.256Z,7.13
2023-05-02T16:30:53.891Z,6.53
2023-05-02T16:33:21.262Z,6.88
2023-05-02T16:35:48.057Z,8.95
2023-05-02T16:38:14.703Z,5.68
2023-05-02T16:40:41.267Z,6.75
2023-05-02T16:43:07.791Z,7.53
2023-05-02T16:45:34.332Z,8.50
2023-05-02T16:48:00.946Z,9.15
2023-05-02T16:50:27.518Z,4.82
2023-05-02T16:52:54.104Z,4.78
2023-05-02T16:55:20.844Z,5.78
2023-05-02T16:57:47.354Z,5.82
2023-05-02T17:00:14.537Z,9.85
2023-05-02T17:02:41.105Z,5.20
2023-05-02T17:05:08.300Z,5.93
2023-05-02T17:07:34.828Z,8.35
2023-05-02T17:10:01.671Z,8.05
2023-05-02T17:12:28.502Z,6.30
2023-05-02T17:14:54.998Z,8.27
2023-05-02T17:17:21.524Z,6.65
2023-05-02T17:19:48.082Z,5.85
2023-05-02T17:22:14.699Z,9.23
2023-05-02T17:24:41.265Z,6.35
2023-05-02T17:27:08.014Z,8.40
2023-05-02T17:29:34.497Z,8.85
2023-05-02T17:32:01.084Z,7.70
2023-05-02T17:34:27.695Z,5.38
2023-05-02T17:36:54.480Z,7.88
2023-05-02T17:39:21.024Z,5.95
2023-05-02T17:41:47.552Z,5.70
2023-05-02T17:44:14.120Z,9.15
2023-05-02T17:46:40.783Z,7.95
2023-05-02T17:49:09.921Z,7.70
2023-05-02T17:51:36.465Z,8.60
2023-05-02T17:54:03.037Z,7.28
2023-05-02T17:56:29.609Z,7.28
2023-05-02T17:58:56.159Z,6.45
2023-05-02T18:01:22.790Z,5.82
2023-05-02T18:03:49.536Z,9.13
2023-05-02T18:06:17.019Z,6.90
2023-05-02T18:08:44.345Z,7.47
2023-05-02T18:11:15.580Z,7.20
2023-05-02T18:13:42.436Z,7.50
2023-05-02T18:16:09.029Z,7.68
2023-05-02T18:18:38.328Z,9.70
2023-05-02T18:21:05.029Z,6.80
2023-05-02T18:23:32.651Z,6.38
2023-05-02T18:26:01.566Z,8.90
2023-05-02T18:28:28.171Z,6.25
2023-05-02T18:30:54.697Z,7.53
2023-05-02T18:33:21.677Z,9.95
2023-05-02T18:35:51.477Z,12.07
2023-05-02T18:40:46.677Z,12.88
2023-05-02T18:43:13.563Z,8.77
2023-05-02T18:45:40.186Z,8.20
2023-05-02T18:48:06.883Z,9.70
2023-05-02T18:50:33.499Z,9.02
2023-05-02T18:53:03.093Z,8.15
2023-05-02T18:55:32.287Z,9.05
2023-05-02T18:57:58.785Z,8.15
2023-05-02T19:00:25.284Z,6.60
2023-05-02T19:02:52.423Z,9.93
2023-05-02T19:05:19.253Z,7.00
2023-05-02T19:07:46.017Z,9.68
2023-05-02T19:10:12.560Z,7.80
2023-05-02T19:12:39.906Z,5.68
2023-05-02T19:15:07.785Z,12.18
2023-05-02T19:17:34.420Z,13.82
2023-05-02T19:20:00.982Z,7.07
2023-05-02T19:22:27.764Z,9.25
2023-05-02T19:24:54.524Z,9.68
2023-05-02T19:27:21.285Z,8.98
2023-05-02T19:29:47.895Z,7.80
2023-05-02T19:32:14.993Z,15.02
2023-05-02T19:34:41.629Z,12.73
2023-05-02T19:37:08.362Z,10.38
2023-05-02T19:39:34.891Z,9.43
2023-05-02T19:42:01.427Z,9.85
2023-05-02T19:44:28.297Z,11.70
2023-05-02T19:46:54.834Z,12.82
2023-05-02T19:49:21.514Z,15.13
2023-05-02T19:51:48.102Z,9.50
2023-05-02T19:54:14.764Z,10.57
2023-05-02T19:56:41.279Z,8.45
2023-05-02T19:59:07.861Z,12.35
2023-05-02T20:01:34.635Z,9.18
2023-05-02T20:04:01.372Z,10.07
2023-05-02T20:06:28.001Z,11.25
2023-05-02T20:08:54.565Z,12.77
2023-05-02T20:11:21.114Z,8.63
2023-05-02T20:13:47.689Z,8.43
2023-05-02T20:16:14.903Z,7.63
2023-05-02T20:18:41.501Z,11.55
2023-05-02T20:21:14.895Z,7.68
2023-05-02T20:23:42.985Z,10.35
2023-05-02T20:26:09.882Z,11.00
2023-05-02T20:28:37.465Z,13.68
2023-05-02T20:31:07.197Z,11.60
2023-05-02T20:33:44.725Z,10.50
2023-05-02T20:36:12.831Z,7.57
2023-05-02T20:38:39.411Z,12.60
2023-05-02T20:41:05.962Z,9.80
2023-05-02T20:43:32.567Z,11.00
2023-05-02T20:46:09.369Z,13.63
2023-05-02T20:48:35.981Z,12.02
2023-05-02T20:51:02.535Z,10.30
2023-05-02T20:53:29.046Z,10.40
2023-05-02T20:55:55.560Z,9.23
2023-05-02T20:58:22.113Z,11.80
2023-05-02T21:00:48.694Z,10.20
2023-05-02T21:03:15.278Z,9.25
2023-05-02T21:05:41.823Z,10.85
2023-05-02T21:08:08.401Z,9.20
2023-05-02T21:10:34.920Z,11.80
2023-05-02T21:13:01.495Z,10.68
2023-05-02T21:15:28.081Z,11.70
2023-05-02T21:18:04.773Z,9.98
2023-05-02T21:20:31.380Z,9.20
2023-05-02T21:22:57.886Z,9.40
2023-05-02T21:25:24.632Z,10.10
2023-05-02T21:27:52.154Z,7.82
2023-05-02T21:30:18.861Z,9.73
2023-05-02T21:32:45.666Z,11.02
2023-05-02T21:35:12.428Z,9.05
2023-05-02T21:37:38.969Z,11.80
2023-05-02T21:40:06.191Z,8.43
2023-05-02T21:42:32.731Z,10.68
2023-05-02T21:44:59.252Z,10.23
2023-05-02T21:47:25.845Z,10.45
2023-05-02T21:49:54.086Z,9.07
2023-05-02T21:52:20.582Z,9.30
2023-05-02T21:54:47.093Z,10.52
2023-05-02T21:57:13.599Z,11.45
2023-05-02T21:59:40.107Z,10.85
2023-05-02T22:02:06.665Z,10.18
2023-05-02T22:04:33.171Z,10.35
2023-05-02T22:06:59.644Z,11.05
2023-05-02T22:09:26.152Z,10.30
2023-05-02T22:11:55.692Z,11.05
2023-05-02T22:14:25.461Z,11.98
2023-05-02T22:16:56.949Z,13.15
2023-05-02T22:19:24.282Z,11.20
2023-05-02T22:21:50.884Z,10.18
2023-05-02T22:24:17.412Z,13.30
2023-05-02T22:26:43.909Z,10.80
2023-05-02T22:29:10.448Z,10.95
2023-05-02T22:31:36.989Z,10.40
2023-05-02T22:34:03.515Z,12.00
2023-05-02T22:36:29.979Z,8.80
2023-05-02T22:38:56.573Z,11.55
2023-05-02T22:41:23.087Z,11.95
2023-05-02T22:43:49.567Z,15.13
2023-05-02T22:46:16.093Z,12.00
2023-05-02T22:48:42.628Z,14.40
2023-05-02T22:51:09.246Z,13.48
2023-05-02T22:53:35.784Z,10.38
2023-05-02T22:56:02.341Z,10.55
2023-05-02T22:58:28.834Z,10.32
2023-05-02T23:00:55.788Z,8.25
2023-05-02T23:03:22.411Z,11.02
2023-05-02T23:05:49.060Z,12.63
2023-05-02T23:08:15.548Z,13.38
2023-05-02T23:10:42.084Z,8.48
2023-05-02T23:13:08.572Z,8.05
2023-05-02T23:15:35.238Z,11.73
2023-05-02T23:18:01.834Z,9.15
2023-05-02T23:20:28.424Z,8.65
2023-05-02T23:22:54.946Z,11.52
2023-05-02T23:25:22.619Z,8.80
2023-05-02T23:27:49.163Z,11.15
2023-05-02T23:30:15.721Z,11.02
2023-05-02T23:32:42.341Z,10.00
2023-05-02T23:35:10.516Z,12.63
2023-05-02T23:37:38.121Z,10.52
2023-05-02T23:40:06.233Z,11.60
2023-05-02T23:42:33.312Z,11.52
2023-05-02T23:44:59.787Z,9.73
2023-05-02T23:47:26.323Z,9.55
2023-05-02T23:49:53.892Z,10.82
2023-05-02T23:52:20.793Z,13.10
2023-05-02T23:54:47.450Z,13.75
2023-05-02T23:57:13.945Z,14.27
2023-05-02T23:59:40.868Z,13.35
